A80 TRACON Summary / KATL TAF
ATL TRACON Summary:
Tropical Depression Bonnie will remain nearly stationary along the SC Coast overnight. Isolated showers and thunderstorms should dissipate through 04z. Cells will move south to southeast at 5-15kts. Expect FEW/SCT030-070 clouds. Surface winds will be northwest to north at 5-12kts. Flight hazards in the TRACON airspace outside convection: None Expected.

Updated: 5/30/2016 8:14 PM
ATL Terminal Aerodrome Forecast:

FTUS31 KATL 310333 AAA
KATL 310332Z 3104/0106 34005KT P6SM FEW150
     FM310800 03005KT P6SM FEW250
     FM311400 09006KT P6SM FEW050
     FM311800 32006KT P6SM SCT060
     FM010000 32005KT P6SM SCT150
ATL TRACON Area Remark:
ISOLATED TS POSSIBLE ALL QUADS 18-02z.
Convective Gate Forecast / Icing Gate Forecast / Vertical Wind Profile (click on image to enlarge)
Convective Gate Forecast
Icing Gate Forecast
AIRMETs & SIGMETS/ Southeast Radar loop / Satellite Image (click on image to enlarge)

Southeast Radar Loop

 



USA.gov is the U.S. government's official web portal to all federal, state and local government web resources and services.